Time;durP1;ratioP1;P1;durP2;ratioP2;P2;SDS_P1;SDS_P2;PMS_P1;PMS_P2;Temp;Humidity;BMP_temperature;BMP_pressure;BME280_temperature;BME280_humidity;BME280_pressure;Samples;Min_cycle;Max_cycle;Signal;HPM_P1;HPM_P2
2021/01/12 00:00:44;;;;;;;47.37;24.17;;;-6.70;99.90;;;;;;5092494;28;20028;-90
2021/01/12 00:03:10;;;;;;;54.50;25.27;;;-6.70;99.90;;;;;;5092362;28;20099;-90
2021/01/12 00:05:36;;;;;;;48.97;24.20;;;-6.60;99.90;;;;;;5090956;28;20032;-90
2021/01/12 00:08:07;;;;;;;58.03;27.13;;;-6.60;99.90;;;;;;5092449;28;20146;-90
2021/01/12 00:10:33;;;;;;;56.80;25.20;;;-6.50;99.90;;;;;;5090984;28;20028;-90
2021/01/12 00:12:58;;;;;;;55.27;24.20;;;-6.50;99.90;;;;;;5092378;28;20355;-90
2021/01/12 00:15:24;;;;;;;48.37;24.83;;;-6.50;99.90;;;;;;5092003;28;20036;-90
2021/01/12 00:17:49;;;;;;;52.03;25.73;;;-6.50;99.90;;;;;;5092184;28;20035;-90
2021/01/12 00:20:15;;;;;;;48.43;25.23;;;-6.60;99.90;;;;;;5091970;28;20125;-90
2021/01/12 00:22:41;;;;;;;49.70;24.87;;;-6.60;99.90;;;;;;5092392;28;20028;-90
2021/01/12 00:25:07;;;;;;;51.33;25.43;;;-6.50;99.90;;;;;;5092129;28;20028;-90
2021/01/12 00:27:33;;;;;;;52.33;24.90;;;-6.40;99.90;;;;;;5090731;28;20086;-90
2021/01/12 00:29:59;;;;;;;49.23;25.27;;;-6.40;99.90;;;;;;5092210;28;20028;-90
2021/01/12 00:32:26;;;;;;;45.87;24.77;;;-6.30;99.90;;;;;;5092160;28;20028;-90
2021/01/12 00:34:52;;;;;;;52.90;26.13;;;-6.20;99.90;;;;;;5092284;28;20028;-90
2021/01/12 00:37:23;;;;;;;50.37;25.47;;;-6.20;99.90;;;;;;5091879;28;20031;-90
2021/01/12 00:39:50;;;;;;;45.50;24.27;;;-6.10;99.90;;;;;;5093971;28;20464;-90
2021/01/12 00:42:16;;;;;;;46.47;24.03;;;-6.10;99.90;;;;;;5094545;28;20066;-90
2021/01/12 00:44:42;;;;;;;45.00;23.73;;;-6.10;99.90;;;;;;5096372;28;20405;-90
2021/01/12 00:47:08;;;;;;;46.87;24.33;;;-6.10;99.90;;;;;;5095709;28;20028;-90
2021/01/12 00:49:34;;;;;;;47.03;22.57;;;-6.10;99.90;;;;;;5096329;28;20028;-90
2021/01/12 00:52:00;;;;;;;45.47;24.00;;;-6.10;99.90;;;;;;5094090;28;20032;-90
2021/01/12 00:54:26;;;;;;;49.00;24.63;;;-6.10;99.90;;;;;;5094516;28;20039;-90
2021/01/12 00:56:54;;;;;;;46.70;23.33;;;-6.10;99.90;;;;;;5095365;28;20097;-90
2021/01/12 00:59:20;;;;;;;42.93;23.53;;;-6.00;99.90;;;;;;5095681;28;20046;-90
2021/01/12 01:01:47;;;;;;;49.43;24.63;;;-6.10;99.90;;;;;;5095460;28;20031;-90
2021/01/12 01:04:14;;;;;;;50.47;23.87;;;-6.00;99.90;;;;;;5095692;28;20020;-90
2021/01/12 01:06:41;;;;;;;47.03;23.80;;;-6.00;99.90;;;;;;5095388;28;20024;-90
2021/01/12 01:09:07;;;;;;;42.97;23.03;;;-6.00;99.90;;;;;;5095495;28;20063;-90
2021/01/12 01:11:32;;;;;;;47.37;23.63;;;-5.90;99.90;;;;;;5095387;28;20055;-90
2021/01/12 01:13:59;;;;;;;48.63;25.30;;;-5.90;99.90;;;;;;5095350;28;20089;-90
2021/01/12 01:16:35;;;;;;;47.80;24.63;;;-5.80;99.90;;;;;;5095339;28;20030;-91
2021/01/12 01:19:01;;;;;;;42.53;22.53;;;-5.80;99.90;;;;;;5095169;28;20020;-91
2021/01/12 01:21:27;;;;;;;42.20;23.53;;;-5.80;99.90;;;;;;5094030;28;20028;-90
2021/01/12 01:23:53;;;;;;;40.03;22.23;;;-5.80;99.90;;;;;;5094921;28;20039;-90
2021/01/12 01:26:19;;;;;;;46.00;24.60;;;-5.70;99.90;;;;;;5094180;28;20020;-91
2021/01/12 01:28:45;;;;;;;43.67;22.73;;;-5.70;99.90;;;;;;5094863;28;20028;-91
2021/01/12 01:31:11;;;;;;;48.63;24.07;;;-5.60;99.90;;;;;;5093686;28;20032;-90
2021/01/12 01:33:37;;;;;;;47.47;23.43;;;-5.60;99.90;;;;;;5094907;28;20389;-90
2021/01/12 01:36:03;;;;;;;47.57;25.00;;;-5.50;99.90;;;;;;5094809;28;20032;-91
2021/01/12 01:38:30;;;;;;;44.93;22.73;;;-5.50;99.90;;;;;;5093601;28;20493;-90
2021/01/12 01:40:59;;;;;;;46.27;24.00;;;-5.50;99.90;;;;;;5094739;28;20056;-90
2021/01/12 01:43:25;;;;;;;37.77;21.20;;;-5.40;99.90;;;;;;5093435;28;20020;-90
2021/01/12 01:45:51;;;;;;;43.23;22.33;;;-5.40;99.90;;;;;;5093390;28;20035;-90
2021/01/12 01:48:17;;;;;;;45.07;23.80;;;-5.40;99.90;;;;;;5094915;28;20032;-91
2021/01/12 01:50:43;;;;;;;43.93;23.30;;;-5.40;99.90;;;;;;5094337;28;20115;-90
2021/01/12 01:53:12;;;;;;;43.93;22.13;;;-5.40;99.90;;;;;;5094656;28;20440;-90
2021/01/12 01:55:38;;;;;;;45.47;22.97;;;-5.30;99.90;;;;;;5093284;28;20093;-90
2021/01/12 01:58:05;;;;;;;40.97;22.13;;;-5.30;99.90;;;;;;5093300;28;20067;-91
2021/01/12 02:00:33;;;;;;;43.47;22.10;;;-5.30;99.90;;;;;;5094478;28;20024;-91
2021/01/12 02:03:09;;;;;;;40.80;22.63;;;-5.30;99.90;;;;;;5094566;28;20032;-91
2021/01/12 02:05:39;;;;;;;41.80;22.10;;;-5.20;99.90;;;;;;5094407;28;20020;-91
2021/01/12 02:08:13;;;;;;;37.60;22.40;;;-5.20;99.90;;;;;;5094364;28;20035;-90
2021/01/12 02:10:42;;;;;;;40.53;22.43;;;-5.10;99.90;;;;;;5095763;28;20435;-91
2021/01/12 02:13:13;;;;;;;35.70;20.97;;;-5.10;99.90;;;;;;5100760;28;20358;-91
2021/01/12 02:15:40;;;;;;;37.87;20.63;;;-5.10;99.90;;;;;;5099399;28;20028;-91
2021/01/12 02:18:08;;;;;;;38.37;19.97;;;-5.00;99.90;;;;;;5098134;28;20036;-90
2021/01/12 02:20:34;;;;;;;39.23;21.03;;;-5.00;99.90;;;;;;5091220;28;20032;-90
2021/01/12 02:23:14;;;;;;;39.13;21.20;;;-4.90;99.90;;;;;;5092375;28;20028;-91
2021/01/12 02:25:41;;;;;;;34.07;19.40;;;-5.00;99.90;;;;;;5090930;28;20028;-90
2021/01/12 02:28:12;;;;;;;37.00;20.67;;;-4.90;99.90;;;;;;5090882;28;20035;-91
2021/01/12 02:30:38;;;;;;;33.97;19.30;;;-4.80;99.90;;;;;;5092233;28;20476;-91
2021/01/12 02:33:05;;;;;;;37.63;20.40;;;-4.90;99.90;;;;;;5090999;28;20070;-91
2021/01/12 02:35:33;;;;;;;40.80;20.70;;;-4.80;99.90;;;;;;5092254;28;20035;-91
2021/01/12 02:38:00;;;;;;;38.23;20.70;;;-4.80;99.90;;;;;;5092340;28;20085;-91
2021/01/12 02:40:26;;;;;;;36.83;20.73;;;-4.80;99.90;;;;;;5093981;28;20050;-91
2021/01/12 02:42:52;;;;;;;38.40;21.07;;;-4.80;99.90;;;;;;5093637;28;20509;-90
2021/01/12 02:45:18;;;;;;;41.07;20.37;;;-4.80;99.90;;;;;;5093275;28;20121;-91
2021/01/12 02:47:44;;;;;;;42.60;22.70;;;-4.80;99.90;;;;;;5092032;28;20118;-90
2021/01/12 02:50:15;;;;;;;36.30;19.97;;;-4.80;99.90;;;;;;5093292;28;20154;-91
2021/01/12 02:52:44;;;;;;;36.63;21.53;;;-4.80;99.90;;;;;;5092478;28;20476;-90
2021/01/12 02:55:10;;;;;;;36.83;20.63;;;-4.80;99.90;;;;;;5093482;28;20028;-91
2021/01/12 02:57:36;;;;;;;37.83;20.70;;;-4.80;99.90;;;;;;5091845;28;20052;-91
2021/01/12 03:00:08;;;;;;;39.27;21.13;;;-4.90;99.90;;;;;;5091876;28;20028;-91
2021/01/12 03:02:33;;;;;;;41.47;22.40;;;-4.90;99.90;;;;;;5092715;28;20020;-91
2021/01/12 03:04:59;;;;;;;38.80;21.40;;;-4.90;99.90;;;;;;5093037;28;20028;-91
2021/01/12 03:07:25;;;;;;;41.27;23.70;;;-4.90;99.90;;;;;;5092050;28;20062;-91
2021/01/12 03:09:51;;;;;;;41.43;22.53;;;-4.90;99.90;;;;;;5093118;28;20117;-91
2021/01/12 03:12:16;;;;;;;39.57;21.80;;;-4.90;99.90;;;;;;5093178;28;20043;-90
2021/01/12 03:14:42;;;;;;;38.93;20.77;;;-4.90;99.90;;;;;;5093122;28;20036;-91
2021/01/12 03:17:11;;;;;;;36.20;20.73;;;-4.80;99.90;;;;;;5093020;28;20101;-91
2021/01/12 03:19:37;;;;;;;37.40;20.37;;;-4.80;99.90;;;;;;5092388;28;20704;-91
2021/01/12 03:22:04;;;;;;;37.23;21.27;;;-4.90;99.90;;;;;;5092651;28;20024;-91
2021/01/12 03:24:30;;;;;;;38.37;20.40;;;-4.80;99.90;;;;;;5093138;28;20500;-91
2021/01/12 03:26:55;;;;;;;37.77;21.57;;;-4.80;99.90;;;;;;5091463;28;20059;-91
2021/01/12 03:29:21;;;;;;;35.97;20.30;;;-4.80;99.90;;;;;;5091593;28;20096;-91
2021/01/12 03:31:46;;;;;;;39.20;21.37;;;-4.80;99.90;;;;;;5092519;28;20059;-91
2021/01/12 03:34:12;;;;;;;39.53;20.10;;;-4.70;99.90;;;;;;5093052;28;20082;-91
2021/01/12 03:36:38;;;;;;;38.57;20.77;;;-4.60;99.90;;;;;;5092565;28;20028;-91
2021/01/12 03:39:04;;;;;;;37.77;21.37;;;-4.60;99.90;;;;;;5092936;28;20102;-91
2021/01/12 03:41:31;;;;;;;41.17;21.73;;;-4.50;99.90;;;;;;5092535;28;20024;-90
2021/01/12 03:43:58;;;;;;;34.03;19.67;;;-4.40;99.90;;;;;;5092668;28;20029;-91
2021/01/12 03:46:24;;;;;;;36.37;19.63;;;-4.40;99.90;;;;;;5092686;28;20054;-91
2021/01/12 03:48:49;;;;;;;36.33;20.67;;;-4.40;99.90;;;;;;5092427;28;20036;-91
2021/01/12 03:51:15;;;;;;;35.03;18.50;;;-4.40;99.90;;;;;;5092398;28;20039;-91
2021/01/12 03:53:40;;;;;;;35.63;18.73;;;-4.30;99.90;;;;;;5092510;28;20027;-91
2021/01/12 03:56:06;;;;;;;34.87;20.20;;;-4.20;99.90;;;;;;5091172;28;20077;-91
2021/01/12 03:58:32;;;;;;;42.43;20.87;;;-4.20;99.90;;;;;;5091148;28;20491;-91
2021/01/12 04:00:57;;;;;;;33.77;18.70;;;-4.20;99.90;;;;;;5092392;28;20112;-91
2021/01/12 04:03:23;;;;;;;35.17;19.77;;;-4.20;99.90;;;;;;5091185;28;20659;-91
2021/01/12 04:05:51;;;;;;;33.50;18.70;;;-4.20;99.90;;;;;;5091678;28;20047;-90
2021/01/12 04:08:17;;;;;;;34.03;19.37;;;-4.10;99.90;;;;;;5092305;28;20442;-91
2021/01/12 04:10:42;;;;;;;34.73;19.00;;;-4.10;99.90;;;;;;5091299;28;20066;-91
2021/01/12 04:13:08;;;;;;;31.10;18.67;;;-4.00;99.90;;;;;;5093031;28;20083;-91
2021/01/12 04:15:34;;;;;;;31.97;18.43;;;-4.00;99.90;;;;;;5096692;28;20036;-91
2021/01/12 04:17:59;;;;;;;32.73;19.17;;;-3.90;99.90;;;;;;5096298;28;20110;-91
2021/01/12 04:20:25;;;;;;;28.13;16.80;;;-3.80;99.90;;;;;;5096537;28;20038;-91
2021/01/12 04:22:51;;;;;;;33.13;18.90;;;-3.60;99.90;;;;;;5095048;28;20039;-91
2021/01/12 04:25:17;;;;;;;31.13;17.70;;;-3.50;99.90;;;;;;5096447;28;20074;-91
2021/01/12 04:27:43;;;;;;;29.53;17.03;;;-3.50;99.90;;;;;;5095154;28;20063;-91
2021/01/12 04:30:09;;;;;;;30.27;17.37;;;-3.40;99.90;;;;;;5096255;28;20052;-91
2021/01/12 04:32:35;;;;;;;34.47;18.00;;;-3.40;99.90;;;;;;5096326;28;20032;-91
2021/01/12 04:35:00;;;;;;;30.40;18.17;;;-3.30;99.90;;;;;;5096055;28;20525;-91
2021/01/12 04:37:26;;;;;;;30.90;16.73;;;-3.20;99.90;;;;;;5096024;28;20047;-91
2021/01/12 04:39:51;;;;;;;30.20;16.90;;;-3.00;99.90;;;;;;5095950;28;20020;-90
2021/01/12 04:42:17;;;;;;;27.20;16.47;;;-3.10;99.90;;;;;;5096333;28;20107;-91
2021/01/12 04:44:42;;;;;;;32.03;17.00;;;-3.10;99.90;;;;;;5095651;28;20025;-91
2021/01/12 04:47:08;;;;;;;27.27;16.00;;;-3.00;99.90;;;;;;5094873;28;20102;-91
2021/01/12 04:49:34;;;;;;;29.07;17.23;;;-3.00;99.90;;;;;;5094659;28;20036;-91
2021/01/12 04:52:01;;;;;;;28.23;17.03;;;-3.00;99.90;;;;;;5094622;28;20028;-91
2021/01/12 04:54:34;;;;;;;28.60;16.77;;;-3.00;99.90;;;;;;5094251;28;20384;-90
2021/01/12 04:57:00;;;;;;;30.27;17.03;;;-2.90;99.90;;;;;;5094380;28;20400;-91
2021/01/12 04:59:33;;;;;;;30.17;17.37;;;-2.80;99.90;;;;;;5095522;28;20032;-91
2021/01/12 05:02:00;;;;;;;28.03;16.67;;;-2.80;99.90;;;;;;5094591;28;20081;-91
2021/01/12 05:04:25;;;;;;;28.43;16.00;;;-2.70;99.90;;;;;;5094175;28;20024;-91
2021/01/12 05:06:53;;;;;;;32.30;17.30;;;-2.50;99.90;;;;;;5095639;28;20085;-91
2021/01/12 05:09:20;;;;;;;28.80;17.47;;;-2.40;99.90;;;;;;5094223;28;20044;-91
2021/01/12 05:11:46;;;;;;;29.73;16.37;;;-2.40;99.90;;;;;;5094199;28;20066;-91
2021/01/12 05:14:14;;;;;;;31.17;18.30;;;-2.40;99.90;;;;;;5094381;28;20442;-91
2021/01/12 05:16:54;;;;;;;29.13;17.53;;;-2.40;99.90;;;;;;5094049;28;20027;-91
2021/01/12 05:19:29;;;;;;;30.40;17.73;;;-2.30;99.90;;;;;;5095675;28;20024;-91
2021/01/12 05:22:05;;;;;;;31.43;18.57;;;-2.30;99.90;;;;;;5093813;28;20357;-91
2021/01/12 05:24:41;;;;;;;33.07;18.30;;;-2.40;99.90;;;;;;5094702;28;20058;-91
2021/01/12 05:27:07;;;;;;;;;;;-2.50;99.90;;;;;;5095757;28;20035;-91
2021/01/12 05:29:34;;;;;;;31.33;18.33;;;-2.60;99.90;;;;;;5093706;28;19904;-91
2021/01/12 05:32:05;;;;;;;27.57;16.93;;;-2.70;99.90;;;;;;5095241;28;20464;-92
2021/01/12 05:34:38;;;;;;;32.60;19.37;;;-2.70;99.90;;;;;;5094886;28;20024;-91
2021/01/12 05:37:06;;;;;;;30.27;16.80;;;-2.70;99.90;;;;;;5095136;28;20043;-91
2021/01/12 05:39:42;;;;;;;29.93;18.07;;;-2.70;99.90;;;;;;5094939;28;20051;-92
2021/01/12 05:42:10;;;;;;;28.53;16.63;;;-2.80;99.90;;;;;;5094844;28;20016;-91
2021/01/12 05:44:37;;;;;;;27.77;16.73;;;-2.80;99.90;;;;;;5094936;28;20028;-91
2021/01/12 05:47:03;;;;;;;28.43;15.97;;;-2.80;99.90;;;;;;5094907;28;20020;-91
2021/01/12 05:49:30;;;;;;;27.10;15.47;;;-2.80;99.90;;;;;;5093395;28;20198;-91
2021/01/12 05:51:55;;;;;;;26.70;15.43;;;-2.70;99.90;;;;;;5094832;28;20413;-91
2021/01/12 05:54:31;;;;;;;25.63;14.90;;;-2.60;99.90;;;;;;5094365;28;20020;-91
2021/01/12 05:56:56;;;;;;;;;;;-2.60;99.90;;;;;;5093541;28;20048;-91
2021/01/12 05:59:30;;;;;;;24.17;13.50;;;-2.60;99.90;;;;;;5094717;28;19900;-91
2021/01/12 06:01:56;;;;;;;25.63;14.33;;;-2.60;99.90;;;;;;5093252;28;20109;-91
2021/01/12 06:04:23;;;;;;;25.57;13.97;;;-2.50;99.90;;;;;;5094582;28;20504;-91
2021/01/12 06:06:51;;;;;;;22.67;14.13;;;-2.50;99.90;;;;;;5092830;28;20825;-92
2021/01/12 06:09:18;;;;;;;22.33;13.93;;;-2.40;99.90;;;;;;5092799;28;20591;-91
2021/01/12 06:11:47;;;;;;;22.33;13.40;;;-2.30;99.90;;;;;;5094035;28;20073;-91
2021/01/12 06:14:15;;;;;;;21.13;13.10;;;-2.30;99.90;;;;;;5093698;28;20021;-90
2021/01/12 06:16:43;;;;;;;24.80;13.77;;;-2.30;99.90;;;;;;5094125;28;20024;-91
2021/01/12 06:19:10;;;;;;;21.03;12.37;;;-2.20;99.90;;;;;;5092827;28;20039;-91
2021/01/12 06:21:56;;;;;;;21.27;12.90;;;-2.30;99.90;;;;;;5092609;28;20114;-91
2021/01/12 06:24:37;;;;;;;19.30;11.68;;;-2.30;99.90;;;;;;5092735;28;20022;-91
2021/01/12 06:27:15;;;;;;;19.83;11.70;;;-2.30;99.90;;;;;;5092936;28;20020;-91
2021/01/12 06:29:43;;;;;;;17.40;11.30;;;-2.20;99.90;;;;;;5093381;28;20024;-92
2021/01/12 06:32:09;;;;;;;17.03;10.33;;;-2.00;99.90;;;;;;5092437;28;20024;-91
2021/01/12 06:34:34;;;;;;;15.50;9.87;;;-1.90;99.90;;;;;;5092559;28;20055;-91
2021/01/12 06:37:03;;;;;;;17.20;9.37;;;-1.70;99.90;;;;;;5093363;28;20027;-91
2021/01/12 06:39:35;;;;;;;13.40;8.57;;;-1.70;99.90;;;;;;5092567;28;20362;-91
2021/01/12 06:42:04;;;;;;;13.20;7.80;;;-1.50;99.90;;;;;;5092568;28;20016;-92
2021/01/12 06:44:33;;;;;;;12.60;7.83;;;-1.30;99.90;;;;;;5092535;28;20400;-91
2021/01/12 06:46:59;;;;;;;11.50;7.17;;;-1.00;99.90;;;;;;5092252;28;20027;-91
2021/01/12 06:49:29;;;;;;;12.13;7.73;;;-1.00;99.90;;;;;;5092472;28;20028;-91
2021/01/12 06:51:55;;;;;;;10.67;6.53;;;-1.00;99.90;;;;;;5093642;28;20100;-91
2021/01/12 06:54:21;;;;;;;10.57;6.73;;;-0.90;99.90;;;;;;5093801;28;20024;-92
2021/01/12 06:56:59;;;;;;;10.80;7.17;;;-0.80;99.90;;;;;;5092016;28;20401;-91
2021/01/12 06:59:32;;;;;;;9.00;6.07;;;-0.80;99.90;;;;;;5093669;28;20682;-92
2021/01/12 07:01:58;;;;;;;9.30;6.20;;;-0.70;99.90;;;;;;5093351;28;20085;-91
2021/01/12 07:04:28;;;;;;;9.37;6.10;;;-0.60;99.90;;;;;;5093694;28;20042;-92
2021/01/12 07:06:59;;;;;;;10.13;6.60;;;-0.60;99.90;;;;;;5093376;28;20538;-92
2021/01/12 07:09:26;;;;;;;8.87;6.13;;;-0.60;99.90;;;;;;5092464;28;20400;-91
2021/01/12 07:12:18;;;;;;;10.90;6.90;;;-0.60;99.90;;;;;;5092352;28;20031;-92
2021/01/12 07:14:51;;;;;;;11.03;6.57;;;-0.60;99.90;;;;;;5091976;28;20047;-91
2021/01/12 07:17:24;;;;;;;8.53;5.67;;;-0.60;99.90;;;;;;5092186;28;20032;-91
2021/01/12 07:20:00;;;;;;;10.00;6.20;;;-0.60;99.90;;;;;;5091790;28;20027;-92
2021/01/12 07:22:31;;;;;;;10.50;6.47;;;-0.50;99.90;;;;;;5092102;28;20119;-92
2021/01/12 07:24:59;;;;;;;8.97;5.83;;;-0.50;99.90;;;;;;5093043;28;20024;-91
2021/01/12 07:27:24;;;;;;;9.27;6.50;;;-0.40;99.90;;;;;;5091951;28;20072;-92
2021/01/12 07:29:52;;;;;;;11.13;5.93;;;-0.40;99.90;;;;;;5092943;28;20532;-92
2021/01/12 07:32:28;;;;;;;10.60;6.00;;;-0.40;99.90;;;;;;5093275;28;20031;-92
2021/01/12 07:34:56;;;;;;;10.07;6.50;;;-0.40;99.90;;;;;;5092999;28;20361;-92
2021/01/12 07:37:35;;;;;;;9.10;5.53;;;-0.30;99.90;;;;;;5092964;28;20046;-92
2021/01/12 07:40:01;;;;;;;7.73;5.50;;;-0.20;99.90;;;;;;5091213;28;20123;-92
2021/01/12 07:42:27;;;;;;;9.63;6.40;;;-0.10;99.90;;;;;;5092508;28;20067;-91
2021/01/12 07:44:52;;;;;;;8.83;5.47;;;0.00;99.90;;;;;;5092452;28;20469;-91
2021/01/12 07:47:18;;;;;;;9.13;4.70;;;0.00;99.90;;;;;;5093836;28;20028;-92
2021/01/12 07:49:48;;;;;;;7.73;4.47;;;0.10;99.90;;;;;;5092933;28;20042;-88
2021/01/12 07:52:13;;;;;;;7.83;5.13;;;0.10;99.90;;;;;;5093370;28;20074;-88
2021/01/12 07:54:41;;;;;;;8.47;4.67;;;0.20;99.90;;;;;;5093075;28;20056;-88
2021/01/12 07:57:09;;;;;;;7.40;5.10;;;0.30;99.90;;;;;;5091582;28;20426;-88
2021/01/12 07:59:35;;;;;;;7.97;4.40;;;0.30;99.90;;;;;;5093296;28;20214;-88
2021/01/12 08:02:05;;;;;;;7.70;4.70;;;0.30;99.90;;;;;;5093369;28;20132;-89
2021/01/12 08:04:32;;;;;;;6.43;4.23;;;0.40;99.90;;;;;;5093371;28;20082;-87
2021/01/12 08:06:58;;;;;;;7.87;4.90;;;0.40;99.90;;;;;;5093280;28;20414;-88
2021/01/12 08:09:24;;;;;;;8.43;4.50;;;0.40;99.90;;;;;;5093383;28;20032;-88
2021/01/12 08:12:01;;;;;;;6.77;5.00;;;0.40;99.90;;;;;;5091932;28;20036;-88
2021/01/12 08:14:27;;;;;;;7.23;4.63;;;0.50;99.90;;;;;;5091883;28;20024;-88
2021/01/12 08:16:53;;;;;;;6.80;4.40;;;0.50;99.90;;;;;;5092999;28;20078;-88
2021/01/12 08:19:24;;;;;;;6.00;4.07;;;0.50;99.90;;;;;;5091807;28;20030;-88
2021/01/12 08:21:54;;;;;;;5.37;3.93;;;0.70;99.90;;;;;;5091897;28;20020;-88
2021/01/12 08:24:26;;;;;;;6.40;4.00;;;0.80;99.90;;;;;;5091779;28;20016;-87
2021/01/12 08:26:53;;;;;;;5.07;3.33;;;0.80;99.90;;;;;;5093019;28;20016;-88
2021/01/12 08:29:26;;;;;;;6.60;3.90;;;0.90;99.90;;;;;;5091655;28;20020;-88
2021/01/12 08:31:59;;;;;;;5.00;3.30;;;1.00;99.90;;;;;;5091555;28;20024;-89
2021/01/12 08:34:27;;;;;;;6.27;3.70;;;1.00;99.90;;;;;;5091656;28;20025;-88
2021/01/12 08:36:55;;;;;;;6.50;3.87;;;1.10;99.90;;;;;;5092200;28;20407;-88
2021/01/12 08:39:23;;;;;;;5.50;3.27;;;1.10;99.90;;;;;;5092951;28;20485;-88
2021/01/12 08:41:50;;;;;;;4.43;3.10;;;1.10;99.90;;;;;;5093302;28;20024;-88
2021/01/12 08:44:17;;;;;;;5.50;3.50;;;1.20;99.90;;;;;;5092848;28;20032;-88
2021/01/12 08:46:43;;;;;;;6.03;3.40;;;1.20;99.90;;;;;;5092855;28;20030;-88
2021/01/12 08:49:09;;;;;;;6.77;3.33;;;1.30;99.90;;;;;;5092865;28;20028;-88
2021/01/12 08:51:36;;;;;;;5.30;3.53;;;1.50;99.90;;;;;;5108480;28;20024;-86
2021/01/12 08:54:03;;;;;;;5.23;3.30;;;1.50;99.90;;;;;;5093507;28;20016;-86
2021/01/12 08:56:28;;;;;;;5.97;3.57;;;1.60;99.90;;;;;;5092814;28;20126;-89
2021/01/12 08:59:07;;;;;;;5.10;3.27;;;1.60;99.90;;;;;;5092865;28;20111;-89
2021/01/12 09:01:37;;;;;;;6.43;3.60;;;1.70;99.90;;;;;;5094828;28;20024;-89
2021/01/12 09:04:07;;;;;;;6.70;3.60;;;1.70;99.90;;;;;;5096627;28;20017;-89
2021/01/12 09:06:34;;;;;;;5.60;3.10;;;1.80;99.90;;;;;;5096678;28;20020;-89
2021/01/12 09:09:07;;;;;;;4.07;2.93;;;1.80;99.90;;;;;;5096491;28;20149;-89
2021/01/12 09:11:37;;;;;;;4.63;2.70;;;1.90;99.90;;;;;;5096495;28;20059;-89
2021/01/12 09:14:08;;;;;;;4.50;3.20;;;1.90;99.90;;;;;;5096419;28;20035;-89
2021/01/12 09:16:34;;;;;;;3.67;2.60;;;2.00;99.90;;;;;;5096394;28;20473;-89
2021/01/12 09:19:14;;;;;;;3.20;2.40;;;2.00;99.90;;;;;;5096260;28;20477;-89
2021/01/12 09:21:40;;;;;;;3.77;2.80;;;2.10;99.90;;;;;;5095034;28;20377;-88
2021/01/12 09:24:07;;;;;;;5.63;2.80;;;2.20;99.90;;;;;;5096186;28;20095;-89
2021/01/12 09:26:36;;;;;;;4.17;2.40;;;2.20;99.90;;;;;;5096157;28;20107;-89
2021/01/12 09:29:02;;;;;;;5.23;2.90;;;2.20;99.90;;;;;;5096238;28;20373;-88
2021/01/12 09:31:28;;;;;;;4.63;2.40;;;2.20;99.90;;;;;;5096281;28;20433;-89
2021/01/12 09:33:54;;;;;;;3.87;2.50;;;2.40;99.90;;;;;;5095991;28;20100;-89
2021/01/12 09:36:21;;;;;;;2.20;1.93;;;2.40;99.90;;;;;;5095850;28;20024;-88
2021/01/12 09:38:49;;;;;;;2.87;2.17;;;2.50;99.90;;;;;;5094497;28;20024;-89
2021/01/12 09:41:16;;;;;;;4.73;2.30;;;2.50;99.90;;;;;;5095751;28;20028;-89
2021/01/12 09:43:42;;;;;;;3.13;1.93;;;2.50;99.90;;;;;;5094473;28;20027;-88
2021/01/12 09:46:09;;;;;;;5.10;2.23;;;2.60;99.90;;;;;;5095659;28;20024;-88
2021/01/12 09:48:36;;;;;;;3.07;2.40;;;2.60;99.90;;;;;;5096001;28;20024;-89
2021/01/12 09:51:02;;;;;;;3.37;2.20;;;2.70;99.90;;;;;;5095606;28;20500;-89
2021/01/12 09:53:28;;;;;;;5.87;2.73;;;2.70;99.90;;;;;;5095626;28;20140;-88
2021/01/12 09:55:53;;;;;;;2.70;2.10;;;2.60;99.90;;;;;;5094315;28;20036;-88
2021/01/12 09:58:19;;;;;;;3.53;2.20;;;2.70;99.90;;;;;;5095272;28;20047;-88
2021/01/12 10:00:44;;;;;;;3.90;2.47;;;2.70;99.90;;;;;;5094184;28;20027;-88
2021/01/12 10:03:10;;;;;;;2.80;2.17;;;2.70;99.90;;;;;;5094131;28;20012;-88
2021/01/12 10:05:37;;;;;;;3.17;2.20;;;2.70;99.90;;;;;;5093981;28;20465;-88
2021/01/12 10:08:03;;;;;;;2.83;2.27;;;2.40;99.90;;;;;;5095356;28;20024;-88
2021/01/12 10:10:29;;;;;;;5.57;2.40;;;2.50;99.90;;;;;;5093978;28;20028;-88
2021/01/12 10:12:55;;;;;;;3.53;2.40;;;2.40;99.90;;;;;;5093692;28;20370;-88
2021/01/12 10:15:20;;;;;;;3.40;2.40;;;2.40;99.90;;;;;;5094309;28;20064;-88
2021/01/12 10:17:46;;;;;;;3.30;2.10;;;2.30;99.90;;;;;;5095261;28;20028;-87
2021/01/12 10:20:12;;;;;;;3.00;2.20;;;2.30;99.90;;;;;;5095079;28;20017;-88
2021/01/12 10:22:37;;;;;;;2.60;2.17;;;2.30;99.90;;;;;;5093921;28;20028;-87
2021/01/12 10:25:04;;;;;;;3.07;2.10;;;2.40;99.90;;;;;;5094936;28;20016;-87
2021/01/12 10:27:34;;;;;;;3.57;2.30;;;2.20;99.90;;;;;;5094922;28;20418;-87
2021/01/12 10:30:01;;;;;;;2.97;2.20;;;2.10;99.90;;;;;;5094847;28;20028;-87
2021/01/12 10:32:26;;;;;;;4.73;2.10;;;2.20;99.90;;;;;;5094845;28;20198;-87
2021/01/12 10:34:52;;;;;;;3.53;2.03;;;2.20;99.90;;;;;;5094834;28;20109;-87
2021/01/12 10:37:17;;;;;;;3.30;2.37;;;2.10;99.90;;;;;;5094734;28;20024;-87
2021/01/12 10:39:43;;;;;;;2.60;1.80;;;2.10;99.90;;;;;;5094829;28;20020;-88
2021/01/12 10:42:09;;;;;;;3.13;2.23;;;2.00;99.90;;;;;;5095007;28;20350;-88
2021/01/12 10:44:35;;;;;;;3.13;2.13;;;2.00;99.90;;;;;;5092706;28;20024;-87
2021/01/12 10:47:00;;;;;;;3.17;2.30;;;2.00;99.90;;;;;;5094658;28;20449;-88
2021/01/12 10:49:26;;;;;;;5.73;2.40;;;2.00;99.90;;;;;;5094764;28;20022;-88
2021/01/12 10:51:59;;;;;;;3.13;2.20;;;1.90;99.90;;;;;;5094833;28;20089;-88
2021/01/12 10:54:25;;;;;;;3.50;2.20;;;1.80;99.90;;;;;;5094474;28;20016;-88
2021/01/12 10:56:51;;;;;;;2.20;2.00;;;1.80;99.90;;;;;;5094485;28;20059;-88
2021/01/12 10:59:17;;;;;;;2.73;2.10;;;1.70;99.90;;;;;;5094783;28;20024;-88
2021/01/12 11:01:42;;;;;;;3.13;2.20;;;1.70;99.90;;;;;;5094740;28;20035;-87
2021/01/12 11:04:08;;;;;;;7.27;2.30;;;1.70;99.90;;;;;;5094641;28;20051;-88
2021/01/12 11:06:35;;;;;;;3.50;2.40;;;1.70;99.90;;;;;;5094392;28;20057;-88
2021/01/12 11:09:01;;;;;;;8.27;2.63;;;1.70;99.90;;;;;;5094534;28;20484;-88
2021/01/12 11:11:33;;;;;;;5.20;2.37;;;1.70;99.90;;;;;;5094224;28;20059;-88
2021/01/12 11:14:01;;;;;;;3.03;2.00;;;1.70;99.90;;;;;;5093328;28;20462;-85
2021/01/12 11:16:37;;;;;;;3.50;2.13;;;1.70;99.90;;;;;;5094164;28;20035;-85
2021/01/12 11:19:04;;;;;;;3.80;2.97;;;1.80;99.90;;;;;;5093987;28;20030;-85
2021/01/12 11:21:30;;;;;;;4.87;2.37;;;1.80;99.90;;;;;;5094135;28;20474;-84
2021/01/12 11:23:56;;;;;;;4.87;2.50;;;1.70;99.90;;;;;;5093320;28;20138;-84
2021/01/12 11:26:28;;;;;;;3.80;2.33;;;1.80;99.90;;;;;;5093974;28;20020;-84
2021/01/12 11:28:54;;;;;;;3.17;2.00;;;1.70;99.90;;;;;;5094086;28;20161;-83
2021/01/12 11:31:20;;;;;;;3.17;2.40;;;1.70;99.90;;;;;;5093700;28;20452;-83
2021/01/12 11:33:45;;;;;;;3.27;2.20;;;1.80;99.90;;;;;;5094043;28;20036;-84
2021/01/12 11:36:11;;;;;;;3.83;2.23;;;1.70;99.90;;;;;;5093570;28;20024;-83
2021/01/12 11:38:36;;;;;;;5.47;2.87;;;1.70;99.90;;;;;;5093428;28;20032;-83
2021/01/12 11:41:02;;;;;;;7.43;2.30;;;1.80;99.90;;;;;;5093824;28;20058;-83
2021/01/12 11:43:27;;;;;;;3.73;2.00;;;1.80;99.90;;;;;;5093678;28;20032;-84
2021/01/12 11:45:53;;;;;;;2.73;1.80;;;1.80;99.90;;;;;;5093591;28;20035;-84
2021/01/12 11:48:18;;;;;;;3.63;1.93;;;1.90;99.90;;;;;;5093524;28;20043;-84
2021/01/12 11:50:44;;;;;;;5.87;2.40;;;1.90;99.90;;;;;;5093389;28;20099;-84
2021/01/12 11:53:09;;;;;;;2.77;1.87;;;1.80;99.90;;;;;;5093387;28;20028;-84
2021/01/12 11:55:40;;;;;;;5.33;2.10;;;1.80;99.90;;;;;;5093677;28;20032;-84
2021/01/12 11:58:06;;;;;;;2.57;1.93;;;1.70;99.90;;;;;;5093196;28;20401;-85
2021/01/12 12:00:32;;;;;;;7.40;1.93;;;1.80;99.90;;;;;;5093364;28;20022;-85
2021/01/12 12:02:58;;;;;;;2.67;1.93;;;1.80;99.90;;;;;;5093604;28;20439;-85
2021/01/12 12:05:23;;;;;;;3.10;2.10;;;1.80;99.90;;;;;;5093189;28;20527;-85
2021/01/12 12:07:49;;;;;;;3.53;2.10;;;1.80;99.90;;;;;;5092079;28;20479;-84
2021/01/12 12:10:14;;;;;;;5.30;2.00;;;1.90;99.90;;;;;;5093534;28;20020;-85
2021/01/12 12:12:40;;;;;;;2.17;1.70;;;1.80;99.90;;;;;;5093411;28;20027;-85
2021/01/12 12:15:06;;;;;;;2.70;2.10;;;1.80;99.90;;;;;;5091922;28;20499;-85
2021/01/12 12:17:32;;;;;;;2.90;1.97;;;1.80;99.90;;;;;;5093252;28;20110;-85
2021/01/12 12:19:58;;;;;;;3.47;2.00;;;1.80;99.90;;;;;;5093156;28;20039;-85
2021/01/12 12:22:24;;;;;;;2.53;1.70;;;1.90;99.90;;;;;;5093271;28;20020;-85
2021/01/12 12:24:49;;;;;;;3.43;1.90;;;1.90;99.90;;;;;;5093110;28;20027;-85
2021/01/12 12:27:21;;;;;;;2.63;1.83;;;2.00;99.90;;;;;;5093415;28;20034;-85
2021/01/12 12:29:47;;;;;;;2.17;1.67;;;2.00;99.90;;;;;;5093137;28;20020;-85
2021/01/12 12:32:12;;;;;;;3.77;1.60;;;2.00;99.90;;;;;;5092101;28;20039;-85
2021/01/12 12:34:38;;;;;;;2.90;1.93;;;2.00;99.90;;;;;;5095030;28;20056;-85
2021/01/12 12:37:09;;;;;;;2.30;1.80;;;2.10;99.90;;;;;;5097241;28;20423;-92
2021/01/12 12:39:35;;;;;;;1.90;1.50;;;2.00;99.90;;;;;;5097275;28;20400;-88
2021/01/12 12:42:01;;;;;;;3.07;1.70;;;2.10;99.90;;;;;;5097177;28;20020;-88